sensor_id;sensor_type;location;lat;lon;timestamp;temperature;humidity
19829;DHT22;10075;50.924;4.396;2024-01-30T00:02:13;12.30;99.90
19829;DHT22;10075;50.924;4.396;2024-01-30T00:04:40;12.40;99.90
19829;DHT22;10075;50.924;4.396;2024-01-30T00:07:07;12.60;99.90
19829;DHT22;10075;50.924;4.396;2024-01-30T00:09:35;12.70;99.90
19829;DHT22;10075;50.924;4.396;2024-01-30T00:12:03;12.80;99.90
19829;DHT22;10075;50.924;4.396;2024-01-30T00:14:30;12.60;99.90
19829;DHT22;10075;50.924;4.396;2024-01-30T00:16:57;12.50;99.90
19829;DHT22;10075;50.924;4.396;2024-01-30T00:19:24;12.60;99.90
19829;DHT22;10075;50.924;4.396;2024-01-30T00:21:51;12.50;99.90
19829;DHT22;10075;50.924;4.396;2024-01-30T00:24:18;12.50;99.90
19829;DHT22;10075;50.924;4.396;2024-01-30T00:26:47;12.60;99.90
19829;DHT22;10075;50.924;4.396;2024-01-30T00:29:14;12.60;99.90
19829;DHT22;10075;50.924;4.396;2024-01-30T00:31:45;12.40;99.90
19829;DHT22;10075;50.924;4.396;2024-01-30T00:34:12;12.40;99.90
19829;DHT22;10075;50.924;4.396;2024-01-30T00:36:39;12.50;99.90
19829;DHT22;10075;50.924;4.396;2024-01-30T00:39:06;12.50;99.90
19829;DHT22;10075;50.924;4.396;2024-01-30T00:41:34;12.40;99.90
19829;DHT22;10075;50.924;4.396;2024-01-30T00:44:03;12.30;99.90
19829;DHT22;10075;50.924;4.396;2024-01-30T00:46:30;12.30;99.90
19829;DHT22;10075;50.924;4.396;2024-01-30T00:48:57;12.30;99.90
19829;DHT22;10075;50.924;4.396;2024-01-30T00:51:24;12.40;99.90
19829;DHT22;10075;50.924;4.396;2024-01-30T00:53:51;12.40;99.90
19829;DHT22;10075;50.924;4.396;2024-01-30T00:56:19;12.40;99.90
19829;DHT22;10075;50.924;4.396;2024-01-30T00:58:46;12.50;99.90
19829;DHT22;10075;50.924;4.396;2024-01-30T01:01:14;12.60;99.90
19829;DHT22;10075;50.924;4.396;2024-01-30T01:03:42;12.50;99.90
19829;DHT22;10075;50.924;4.396;2024-01-30T01:06:09;12.50;99.90
19829;DHT22;10075;50.924;4.396;2024-01-30T01:08:36;12.60;99.90
19829;DHT22;10075;50.924;4.396;2024-01-30T01:11:03;12.60;99.90
19829;DHT22;10075;50.924;4.396;2024-01-30T01:13:30;12.70;99.90
19829;DHT22;10075;50.924;4.396;2024-01-30T01:15:57;12.70;99.90
19829;DHT22;10075;50.924;4.396;2024-01-30T01:18:26;12.70;99.90
19829;DHT22;10075;50.924;4.396;2024-01-30T01:20:53;12.70;99.90
19829;DHT22;10075;50.924;4.396;2024-01-30T01:23:20;12.70;99.90
19829;DHT22;10075;50.924;4.396;2024-01-30T01:25:47;12.70;99.90
19829;DHT22;10075;50.924;4.396;2024-01-30T01:28:14;12.80;99.90
19829;DHT22;10075;50.924;4.396;2024-01-30T01:30:41;12.70;99.90
19829;DHT22;10075;50.924;4.396;2024-01-30T01:33:08;12.70;99.90
19829;DHT22;10075;50.924;4.396;2024-01-30T01:35:37;12.60;99.90
19829;DHT22;10075;50.924;4.396;2024-01-30T01:38:04;12.70;99.90
19829;DHT22;10075;50.924;4.396;2024-01-30T01:40:31;12.90;99.90
19829;DHT22;10075;50.924;4.396;2024-01-30T01:42:58;12.90;99.90
19829;DHT22;10075;50.924;4.396;2024-01-30T01:45:26;12.90;99.90
19829;DHT22;10075;50.924;4.396;2024-01-30T01:47:53;12.90;99.90
19829;DHT22;10075;50.924;4.396;2024-01-30T01:50:23;12.90;99.90
19829;DHT22;10075;50.924;4.396;2024-01-30T01:52:53;12.90;99.90
19829;DHT22;10075;50.924;4.396;2024-01-30T01:55:21;12.90;99.90
19829;DHT22;10075;50.924;4.396;2024-01-30T01:57:50;12.80;99.90
19829;DHT22;10075;50.924;4.396;2024-01-30T02:00:18;12.80;99.90
19829;DHT22;10075;50.924;4.396;2024-01-30T02:02:46;12.70;99.90
19829;DHT22;10075;50.924;4.396;2024-01-30T02:05:14;12.70;99.90
19829;DHT22;10075;50.924;4.396;2024-01-30T02:07:42;12.90;99.90
19829;DHT22;10075;50.924;4.396;2024-01-30T02:10:11;12.80;99.90
19829;DHT22;10075;50.924;4.396;2024-01-30T02:12:38;12.80;99.90
19829;DHT22;10075;50.924;4.396;2024-01-30T02:15:06;12.80;99.90
19829;DHT22;10075;50.924;4.396;2024-01-30T02:17:33;12.80;99.90
19829;DHT22;10075;50.924;4.396;2024-01-30T02:20:00;12.80;99.90
19829;DHT22;10075;50.924;4.396;2024-01-30T02:22:30;12.80;99.90
19829;DHT22;10075;50.924;4.396;2024-01-30T02:24:59;12.70;99.90
19829;DHT22;10075;50.924;4.396;2024-01-30T02:27:26;12.80;99.90
19829;DHT22;10075;50.924;4.396;2024-01-30T02:29:53;12.80;99.90
19829;DHT22;10075;50.924;4.396;2024-01-30T02:32:20;12.80;99.90
19829;DHT22;10075;50.924;4.396;2024-01-30T02:34:47;12.80;99.90
19829;DHT22;10075;50.924;4.396;2024-01-30T02:37:14;12.80;99.90
19829;DHT22;10075;50.924;4.396;2024-01-30T02:39:42;12.90;99.90
19829;DHT22;10075;50.924;4.396;2024-01-30T02:42:09;12.80;99.90
19829;DHT22;10075;50.924;4.396;2024-01-30T02:44:36;12.80;99.90
19829;DHT22;10075;50.924;4.396;2024-01-30T02:47:03;12.80;99.90
19829;DHT22;10075;50.924;4.396;2024-01-30T02:49:30;12.80;99.90
19829;DHT22;10075;50.924;4.396;2024-01-30T02:51:57;12.80;99.90
19829;DHT22;10075;50.924;4.396;2024-01-30T02:54:24;12.90;99.90
19829;DHT22;10075;50.924;4.396;2024-01-30T02:56:52;13.00;99.90
19829;DHT22;10075;50.924;4.396;2024-01-30T02:59:19;13.20;99.90
19829;DHT22;10075;50.924;4.396;2024-01-30T03:01:46;13.10;99.90
19829;DHT22;10075;50.924;4.396;2024-01-30T03:04:13;13.00;99.90
19829;DHT22;10075;50.924;4.396;2024-01-30T03:06:45;12.90;99.90
19829;DHT22;10075;50.924;4.396;2024-01-30T03:09:12;12.80;99.90
19829;DHT22;10075;50.924;4.396;2024-01-30T03:11:39;12.70;99.90
19829;DHT22;10075;50.924;4.396;2024-01-30T03:14:07;12.90;99.90
19829;DHT22;10075;50.924;4.396;2024-01-30T03:16:36;12.90;99.90
19829;DHT22;10075;50.924;4.396;2024-01-30T03:19:04;13.10;99.90
19829;DHT22;10075;50.924;4.396;2024-01-30T03:21:31;13.20;99.90
19829;DHT22;10075;50.924;4.396;2024-01-30T03:23:58;13.20;99.90
19829;DHT22;10075;50.924;4.396;2024-01-30T03:26:25;13.40;99.90
19829;DHT22;10075;50.924;4.396;2024-01-30T03:28:52;13.50;99.90
19829;DHT22;10075;50.924;4.396;2024-01-30T03:31:20;13.30;99.90
19829;DHT22;10075;50.924;4.396;2024-01-30T03:33:47;13.00;99.90
19829;DHT22;10075;50.924;4.396;2024-01-30T03:36:15;13.00;99.90
19829;DHT22;10075;50.924;4.396;2024-01-30T03:38:42;13.00;99.90
19829;DHT22;10075;50.924;4.396;2024-01-30T03:41:09;13.00;99.90
19829;DHT22;10075;50.924;4.396;2024-01-30T03:43:36;13.00;99.90
19829;DHT22;10075;50.924;4.396;2024-01-30T03:46:04;13.10;99.90
19829;DHT22;10075;50.924;4.396;2024-01-30T03:48:32;13.20;99.90
19829;DHT22;10075;50.924;4.396;2024-01-30T03:50:59;12.90;99.90
19829;DHT22;10075;50.924;4.396;2024-01-30T03:53:26;13.00;99.90
19829;DHT22;10075;50.924;4.396;2024-01-30T03:55:53;12.80;99.90
19829;DHT22;10075;50.924;4.396;2024-01-30T03:58:20;12.80;99.90
19829;DHT22;10075;50.924;4.396;2024-01-30T04:00:47;12.70;99.90
19829;DHT22;10075;50.924;4.396;2024-01-30T04:03:14;12.60;99.90
19829;DHT22;10075;50.924;4.396;2024-01-30T04:05:43;12.70;99.90
19829;DHT22;10075;50.924;4.396;2024-01-30T04:08:10;12.70;99.90
19829;DHT22;10075;50.924;4.396;2024-01-30T04:10:37;12.70;99.90
19829;DHT22;10075;50.924;4.396;2024-01-30T04:13:04;12.60;99.90
19829;DHT22;10075;50.924;4.396;2024-01-30T04:15:31;12.70;99.90
19829;DHT22;10075;50.924;4.396;2024-01-30T04:17:58;12.60;99.90
19829;DHT22;10075;50.924;4.396;2024-01-30T04:20:25;12.60;99.90
19829;DHT22;10075;50.924;4.396;2024-01-30T04:22:53;12.60;99.90
19829;DHT22;10075;50.924;4.396;2024-01-30T04:25:20;12.60;99.90
19829;DHT22;10075;50.924;4.396;2024-01-30T04:27:47;12.60;99.90
19829;DHT22;10075;50.924;4.396;2024-01-30T04:30:15;12.70;99.90
19829;DHT22;10075;50.924;4.396;2024-01-30T04:32:43;12.80;99.90
19829;DHT22;10075;50.924;4.396;2024-01-30T04:35:10;12.70;99.90
19829;DHT22;10075;50.924;4.396;2024-01-30T04:37:37;12.80;99.90
19829;DHT22;10075;50.924;4.396;2024-01-30T04:40:06;12.90;99.90
19829;DHT22;10075;50.924;4.396;2024-01-30T04:42:33;12.70;99.90
19829;DHT22;10075;50.924;4.396;2024-01-30T04:45:00;12.70;99.90
19829;DHT22;10075;50.924;4.396;2024-01-30T04:47:28;12.70;99.90
19829;DHT22;10075;50.924;4.396;2024-01-30T04:49:55;12.70;99.90
19829;DHT22;10075;50.924;4.396;2024-01-30T04:52:22;12.70;99.90
19829;DHT22;10075;50.924;4.396;2024-01-30T04:54:49;12.80;99.90
19829;DHT22;10075;50.924;4.396;2024-01-30T04:57:17;12.80;99.90
19829;DHT22;10075;50.924;4.396;2024-01-30T04:59:44;12.70;99.90
19829;DHT22;10075;50.924;4.396;2024-01-30T05:02:11;12.70;99.90
19829;DHT22;10075;50.924;4.396;2024-01-30T05:04:38;12.70;99.90
19829;DHT22;10075;50.924;4.396;2024-01-30T05:07:05;12.90;99.90
19829;DHT22;10075;50.924;4.396;2024-01-30T05:09:32;12.90;99.90
19829;DHT22;10075;50.924;4.396;2024-01-30T05:11:59;12.90;99.90
19829;DHT22;10075;50.924;4.396;2024-01-30T05:14:27;13.00;99.90
19829;DHT22;10075;50.924;4.396;2024-01-30T05:16:54;12.80;99.90
19829;DHT22;10075;50.924;4.396;2024-01-30T05:19:21;12.80;99.90
19829;DHT22;10075;50.924;4.396;2024-01-30T05:21:48;12.80;99.90
19829;DHT22;10075;50.924;4.396;2024-01-30T05:24:16;12.90;99.90
19829;DHT22;10075;50.924;4.396;2024-01-30T05:26:42;13.10;99.90
19829;DHT22;10075;50.924;4.396;2024-01-30T05:29:09;13.20;99.90
19829;DHT22;10075;50.924;4.396;2024-01-30T05:31:38;13.10;99.90
19829;DHT22;10075;50.924;4.396;2024-01-30T05:34:05;13.20;99.90
19829;DHT22;10075;50.924;4.396;2024-01-30T05:36:32;13.20;99.90
19829;DHT22;10075;50.924;4.396;2024-01-30T05:38:59;13.10;99.90
19829;DHT22;10075;50.924;4.396;2024-01-30T05:41:26;13.10;99.90
19829;DHT22;10075;50.924;4.396;2024-01-30T05:43:55;13.00;99.90
19829;DHT22;10075;50.924;4.396;2024-01-30T05:46:22;13.10;99.90
19829;DHT22;10075;50.924;4.396;2024-01-30T05:48:50;13.10;99.90
19829;DHT22;10075;50.924;4.396;2024-01-30T05:51:17;13.10;99.90
19829;DHT22;10075;50.924;4.396;2024-01-30T05:53:44;13.00;99.90
19829;DHT22;10075;50.924;4.396;2024-01-30T05:56:11;13.00;99.90
19829;DHT22;10075;50.924;4.396;2024-01-30T05:58:38;13.10;99.90
19829;DHT22;10075;50.924;4.396;2024-01-30T06:01:07;13.00;99.90
19829;DHT22;10075;50.924;4.396;2024-01-30T06:03:35;12.90;99.90
19829;DHT22;10075;50.924;4.396;2024-01-30T06:06:03;12.90;99.90
19829;DHT22;10075;50.924;4.396;2024-01-30T06:08:30;13.00;99.90
19829;DHT22;10075;50.924;4.396;2024-01-30T06:10:57;13.00;99.90
19829;DHT22;10075;50.924;4.396;2024-01-30T06:13:24;13.00;99.90
19829;DHT22;10075;50.924;4.396;2024-01-30T06:15:51;13.00;99.90
19829;DHT22;10075;50.924;4.396;2024-01-30T06:18:18;13.00;99.90
19829;DHT22;10075;50.924;4.396;2024-01-30T06:20:46;12.90;99.90
19829;DHT22;10075;50.924;4.396;2024-01-30T06:23:14;12.80;99.90
19829;DHT22;10075;50.924;4.396;2024-01-30T06:25:41;12.80;99.90
19829;DHT22;10075;50.924;4.396;2024-01-30T06:28:08;12.90;99.90
19829;DHT22;10075;50.924;4.396;2024-01-30T06:30:35;12.80;99.90
19829;DHT22;10075;50.924;4.396;2024-01-30T06:33:02;12.70;99.90
19829;DHT22;10075;50.924;4.396;2024-01-30T06:35:29;12.80;99.90
19829;DHT22;10075;50.924;4.396;2024-01-30T06:37:56;12.90;99.90
19829;DHT22;10075;50.924;4.396;2024-01-30T06:40:24;13.00;99.90
19829;DHT22;10075;50.924;4.396;2024-01-30T06:42:51;12.90;99.90
19829;DHT22;10075;50.924;4.396;2024-01-30T06:45:18;12.90;99.90
19829;DHT22;10075;50.924;4.396;2024-01-30T06:47:45;12.90;99.90
19829;DHT22;10075;50.924;4.396;2024-01-30T06:50:12;12.80;99.90
19829;DHT22;10075;50.924;4.396;2024-01-30T06:52:39;12.80;99.90
19829;DHT22;10075;50.924;4.396;2024-01-30T06:55:06;12.70;99.90
19829;DHT22;10075;50.924;4.396;2024-01-30T06:57:35;12.70;99.90
19829;DHT22;10075;50.924;4.396;2024-01-30T07:00:02;12.90;99.90
19829;DHT22;10075;50.924;4.396;2024-01-30T07:02:29;12.70;99.90
19829;DHT22;10075;50.924;4.396;2024-01-30T07:04:56;12.60;99.90
19829;DHT22;10075;50.924;4.396;2024-01-30T07:07:23;12.70;99.90
19829;DHT22;10075;50.924;4.396;2024-01-30T07:09:50;12.80;99.90
19829;DHT22;10075;50.924;4.396;2024-01-30T07:12:22;12.80;99.90
19829;DHT22;10075;50.924;4.396;2024-01-30T07:14:51;12.80;99.90
19829;DHT22;10075;50.924;4.396;2024-01-30T07:17:19;12.90;99.90
19829;DHT22;10075;50.924;4.396;2024-01-30T07:19:46;13.00;99.90
19829;DHT22;10075;50.924;4.396;2024-01-30T07:22:13;13.00;99.90
19829;DHT22;10075;50.924;4.396;2024-01-30T07:24:42;12.90;99.90
19829;DHT22;10075;50.924;4.396;2024-01-30T07:27:12;13.10;99.90
19829;DHT22;10075;50.924;4.396;2024-01-30T07:29:40;13.00;99.90
19829;DHT22;10075;50.924;4.396;2024-01-30T07:32:08;13.20;99.90
19829;DHT22;10075;50.924;4.396;2024-01-30T07:34:35;13.00;99.90
19829;DHT22;10075;50.924;4.396;2024-01-30T07:37:03;12.80;99.90
19829;DHT22;10075;50.924;4.396;2024-01-30T07:39:30;12.90;99.90
19829;DHT22;10075;50.924;4.396;2024-01-30T07:41:56;12.90;99.90
19829;DHT22;10075;50.924;4.396;2024-01-30T07:44:23;12.90;99.90
19829;DHT22;10075;50.924;4.396;2024-01-30T07:46:50;12.90;99.90
19829;DHT22;10075;50.924;4.396;2024-01-30T07:49:19;12.90;99.90
19829;DHT22;10075;50.924;4.396;2024-01-30T07:51:45;12.90;99.90
19829;DHT22;10075;50.924;4.396;2024-01-30T07:54:12;13.00;99.90
19829;DHT22;10075;50.924;4.396;2024-01-30T07:56:39;13.00;99.90
19829;DHT22;10075;50.924;4.396;2024-01-30T07:59:09;12.80;99.90
19829;DHT22;10075;50.924;4.396;2024-01-30T08:01:36;12.80;99.90
19829;DHT22;10075;50.924;4.396;2024-01-30T08:04:04;12.90;99.90
19829;DHT22;10075;50.924;4.396;2024-01-30T08:06:32;13.10;99.90
19829;DHT22;10075;50.924;4.396;2024-01-30T08:09:00;13.00;99.90
19829;DHT22;10075;50.924;4.396;2024-01-30T08:11:27;13.10;99.90
19829;DHT22;10075;50.924;4.396;2024-01-30T08:13:55;13.10;99.90
19829;DHT22;10075;50.924;4.396;2024-01-30T08:16:22;13.20;99.90
19829;DHT22;10075;50.924;4.396;2024-01-30T08:18:49;13.20;99.90
19829;DHT22;10075;50.924;4.396;2024-01-30T08:21:16;13.30;99.90
19829;DHT22;10075;50.924;4.396;2024-01-30T08:23:44;13.20;99.90
19829;DHT22;10075;50.924;4.396;2024-01-30T08:26:11;13.10;99.90
19829;DHT22;10075;50.924;4.396;2024-01-30T08:28:38;13.20;99.90
19829;DHT22;10075;50.924;4.396;2024-01-30T08:31:05;13.20;99.90
19829;DHT22;10075;50.924;4.396;2024-01-30T08:33:32;13.20;99.90
19829;DHT22;10075;50.924;4.396;2024-01-30T08:35:59;13.30;99.90
19829;DHT22;10075;50.924;4.396;2024-01-30T08:38:26;13.10;99.90
19829;DHT22;10075;50.924;4.396;2024-01-30T08:40:55;13.20;99.90
19829;DHT22;10075;50.924;4.396;2024-01-30T08:43:22;13.20;99.90
19829;DHT22;10075;50.924;4.396;2024-01-30T08:45:49;13.20;99.90
19829;DHT22;10075;50.924;4.396;2024-01-30T08:48:16;13.40;99.90
19829;DHT22;10075;50.924;4.396;2024-01-30T08:50:44;13.50;99.90
19829;DHT22;10075;50.924;4.396;2024-01-30T08:53:11;13.40;99.90
19829;DHT22;10075;50.924;4.396;2024-01-30T08:55:38;13.40;99.90
19829;DHT22;10075;50.924;4.396;2024-01-30T08:58:06;13.40;99.90
19829;DHT22;10075;50.924;4.396;2024-01-30T09:00:33;13.40;99.90
19829;DHT22;10075;50.924;4.396;2024-01-30T09:03:00;13.50;99.90
19829;DHT22;10075;50.924;4.396;2024-01-30T09:05:27;13.50;99.90
19829;DHT22;10075;50.924;4.396;2024-01-30T09:07:54;13.40;99.90
19829;DHT22;10075;50.924;4.396;2024-01-30T09:10:21;13.40;99.90
19829;DHT22;10075;50.924;4.396;2024-01-30T09:12:48;13.30;99.90
19829;DHT22;10075;50.924;4.396;2024-01-30T09:15:17;13.20;99.90
19829;DHT22;10075;50.924;4.396;2024-01-30T09:17:44;13.30;99.90
19829;DHT22;10075;50.924;4.396;2024-01-30T09:20:11;13.20;99.90
19829;DHT22;10075;50.924;4.396;2024-01-30T09:22:38;13.30;99.90
19829;DHT22;10075;50.924;4.396;2024-01-30T09:25:06;13.30;99.90
19829;DHT22;10075;50.924;4.396;2024-01-30T09:27:33;13.20;99.90
19829;DHT22;10075;50.924;4.396;2024-01-30T09:30:00;13.10;99.90
19829;DHT22;10075;50.924;4.396;2024-01-30T09:32:28;13.20;99.90
19829;DHT22;10075;50.924;4.396;2024-01-30T09:34:55;13.30;99.90
19829;DHT22;10075;50.924;4.396;2024-01-30T09:37:22;13.20;99.90
19829;DHT22;10075;50.924;4.396;2024-01-30T09:39:49;13.10;99.90
19829;DHT22;10075;50.924;4.396;2024-01-30T09:42:26;13.00;99.90
19829;DHT22;10075;50.924;4.396;2024-01-30T09:44:55;12.90;99.90
19829;DHT22;10075;50.924;4.396;2024-01-30T09:47:22;12.90;99.90
19829;DHT22;10075;50.924;4.396;2024-01-30T09:49:51;13.00;99.90
19829;DHT22;10075;50.924;4.396;2024-01-30T09:52:18;13.00;99.90
19829;DHT22;10075;50.924;4.396;2024-01-30T09:54:45;13.00;99.90
19829;DHT22;10075;50.924;4.396;2024-01-30T09:57:12;13.00;99.90
19829;DHT22;10075;50.924;4.396;2024-01-30T09:59:41;13.10;99.90
19829;DHT22;10075;50.924;4.396;2024-01-30T10:02:09;13.10;99.90
19829;DHT22;10075;50.924;4.396;2024-01-30T10:04:36;13.00;99.90
19829;DHT22;10075;50.924;4.396;2024-01-30T10:07:04;12.90;99.90
19829;DHT22;10075;50.924;4.396;2024-01-30T10:09:33;13.00;99.90
19829;DHT22;10075;50.924;4.396;2024-01-30T10:12:02;13.20;99.90
19829;DHT22;10075;50.924;4.396;2024-01-30T10:14:30;13.20;99.90
19829;DHT22;10075;50.924;4.396;2024-01-30T10:16:57;13.40;99.90
19829;DHT22;10075;50.924;4.396;2024-01-30T10:19:24;13.50;99.90
19829;DHT22;10075;50.924;4.396;2024-01-30T10:21:52;13.60;99.90
19829;DHT22;10075;50.924;4.396;2024-01-30T10:24:24;13.60;99.90
19829;DHT22;10075;50.924;4.396;2024-01-30T10:26:51;13.40;99.90
19829;DHT22;10075;50.924;4.396;2024-01-30T10:29:18;13.30;99.90
19829;DHT22;10075;50.924;4.396;2024-01-30T10:31:45;13.40;99.90
19829;DHT22;10075;50.924;4.396;2024-01-30T10:34:12;13.30;99.90
19829;DHT22;10075;50.924;4.396;2024-01-30T10:36:40;13.40;99.90
19829;DHT22;10075;50.924;4.396;2024-01-30T10:39:08;13.30;99.90
19829;DHT22;10075;50.924;4.396;2024-01-30T10:41:42;13.10;99.90
19829;DHT22;10075;50.924;4.396;2024-01-30T10:44:10;13.00;99.90
19829;DHT22;10075;50.924;4.396;2024-01-30T10:46:38;13.00;99.90
19829;DHT22;10075;50.924;4.396;2024-01-30T10:49:05;12.90;99.90
19829;DHT22;10075;50.924;4.396;2024-01-30T10:51:33;13.00;99.90
19829;DHT22;10075;50.924;4.396;2024-01-30T10:54:01;12.90;99.90
19829;DHT22;10075;50.924;4.396;2024-01-30T10:56:29;12.80;99.90
19829;DHT22;10075;50.924;4.396;2024-01-30T10:59:00;12.80;99.90
19829;DHT22;10075;50.924;4.396;2024-01-30T11:01:28;12.80;99.90
19829;DHT22;10075;50.924;4.396;2024-01-30T11:03:56;12.90;99.90
19829;DHT22;10075;50.924;4.396;2024-01-30T11:06:24;12.90;99.90
19829;DHT22;10075;50.924;4.396;2024-01-30T11:09:00;12.70;99.90
19829;DHT22;10075;50.924;4.396;2024-01-30T11:11:29;12.50;99.90
19829;DHT22;10075;50.924;4.396;2024-01-30T11:14:02;12.40;99.90
19829;DHT22;10075;50.924;4.396;2024-01-30T11:16:32;12.40;99.90
19829;DHT22;10075;50.924;4.396;2024-01-30T11:19:00;12.60;99.90
19829;DHT22;10075;50.924;4.396;2024-01-30T11:21:28;12.60;99.90
19829;DHT22;10075;50.924;4.396;2024-01-30T11:23:55;12.50;99.90
19829;DHT22;10075;50.924;4.396;2024-01-30T11:26:27;12.50;99.90
19829;DHT22;10075;50.924;4.396;2024-01-30T11:28:55;12.50;99.90
19829;DHT22;10075;50.924;4.396;2024-01-30T11:31:23;12.20;99.90
19829;DHT22;10075;50.924;4.396;2024-01-30T11:33:52;12.00;99.90
19829;DHT22;10075;50.924;4.396;2024-01-30T11:36:23;11.80;99.90
19829;DHT22;10075;50.924;4.396;2024-01-30T11:38:52;11.70;99.90
19829;DHT22;10075;50.924;4.396;2024-01-30T11:41:19;11.60;99.90
19829;DHT22;10075;50.924;4.396;2024-01-30T11:43:51;11.50;99.90
19829;DHT22;10075;50.924;4.396;2024-01-30T11:46:18;11.40;99.90
19829;DHT22;10075;50.924;4.396;2024-01-30T11:48:47;11.40;99.90
19829;DHT22;10075;50.924;4.396;2024-01-30T11:51:14;11.60;99.90
19829;DHT22;10075;50.924;4.396;2024-01-30T11:53:44;11.90;99.90
19829;DHT22;10075;50.924;4.396;2024-01-30T11:56:12;12.20;99.90
19829;DHT22;10075;50.924;4.396;2024-01-30T11:58:42;12.30;99.90
19829;DHT22;10075;50.924;4.396;2024-01-30T12:01:10;12.10;99.90
19829;DHT22;10075;50.924;4.396;2024-01-30T12:03:37;12.10;99.90
19829;DHT22;10075;50.924;4.396;2024-01-30T12:06:06;11.90;99.90
19829;DHT22;10075;50.924;4.396;2024-01-30T12:08:33;12.00;99.90
19829;DHT22;10075;50.924;4.396;2024-01-30T12:11:00;12.30;99.90
19829;DHT22;10075;50.924;4.396;2024-01-30T12:13:30;12.50;99.90
19829;DHT22;10075;50.924;4.396;2024-01-30T12:15:58;12.70;99.90
19829;DHT22;10075;50.924;4.396;2024-01-30T12:18:25;12.60;99.90
19829;DHT22;10075;50.924;4.396;2024-01-30T12:20:58;12.40;99.90
19829;DHT22;10075;50.924;4.396;2024-01-30T12:23:27;12.20;99.90
19829;DHT22;10075;50.924;4.396;2024-01-30T12:25:54;12.10;99.90
19829;DHT22;10075;50.924;4.396;2024-01-30T12:28:21;12.10;99.90
19829;DHT22;10075;50.924;4.396;2024-01-30T12:30:48;11.90;99.90
19829;DHT22;10075;50.924;4.396;2024-01-30T12:33:16;11.80;99.90
19829;DHT22;10075;50.924;4.396;2024-01-30T12:35:46;11.50;99.90
19829;DHT22;10075;50.924;4.396;2024-01-30T12:38:13;11.50;99.90
19829;DHT22;10075;50.924;4.396;2024-01-30T12:40:42;11.50;99.90
19829;DHT22;10075;50.924;4.396;2024-01-30T12:43:09;11.50;99.90
19829;DHT22;10075;50.924;4.396;2024-01-30T12:45:36;11.40;99.90
19829;DHT22;10075;50.924;4.396;2024-01-30T12:48:04;11.40;99.90
19829;DHT22;10075;50.924;4.396;2024-01-30T12:50:31;11.20;99.90
19829;DHT22;10075;50.924;4.396;2024-01-30T12:52:58;11.20;99.90
19829;DHT22;10075;50.924;4.396;2024-01-30T12:55:25;11.10;99.90
19829;DHT22;10075;50.924;4.396;2024-01-30T12:57:55;11.10;99.90
19829;DHT22;10075;50.924;4.396;2024-01-30T13:00:22;11.30;99.90
19829;DHT22;10075;50.924;4.396;2024-01-30T13:02:49;11.40;99.90
19829;DHT22;10075;50.924;4.396;2024-01-30T13:05:16;11.60;99.90
19829;DHT22;10075;50.924;4.396;2024-01-30T13:07:43;11.80;99.90
19829;DHT22;10075;50.924;4.396;2024-01-30T13:10:10;12.10;99.90
19829;DHT22;10075;50.924;4.396;2024-01-30T13:12:38;12.20;99.90
19829;DHT22;10075;50.924;4.396;2024-01-30T13:15:07;12.30;99.90
19829;DHT22;10075;50.924;4.396;2024-01-30T13:17:35;12.30;99.90
19829;DHT22;10075;50.924;4.396;2024-01-30T13:20:02;12.30;99.90
19829;DHT22;10075;50.924;4.396;2024-01-30T13:22:29;12.30;99.90
19829;DHT22;10075;50.924;4.396;2024-01-30T13:24:56;12.40;99.90
19829;DHT22;10075;50.924;4.396;2024-01-30T13:27:24;12.50;99.90
19829;DHT22;10075;50.924;4.396;2024-01-30T13:29:51;12.40;99.90
19829;DHT22;10075;50.924;4.396;2024-01-30T13:32:19;12.40;99.90
19829;DHT22;10075;50.924;4.396;2024-01-30T13:34:46;12.50;99.90
19829;DHT22;10075;50.924;4.396;2024-01-30T13:37:13;12.50;99.90
19829;DHT22;10075;50.924;4.396;2024-01-30T13:39:39;12.30;99.90
19829;DHT22;10075;50.924;4.396;2024-01-30T13:42:06;12.10;99.90
19829;DHT22;10075;50.924;4.396;2024-01-30T13:44:34;12.10;99.90
19829;DHT22;10075;50.924;4.396;2024-01-30T13:47:02;12.40;99.90
19829;DHT22;10075;50.924;4.396;2024-01-30T13:49:30;12.30;99.90
19829;DHT22;10075;50.924;4.396;2024-01-30T13:51:57;12.20;99.90
19829;DHT22;10075;50.924;4.396;2024-01-30T13:54:24;12.00;99.90
19829;DHT22;10075;50.924;4.396;2024-01-30T13:56:51;12.20;99.90
19829;DHT22;10075;50.924;4.396;2024-01-30T13:59:18;12.30;99.90
19829;DHT22;10075;50.924;4.396;2024-01-30T14:01:50;12.00;99.90
19829;DHT22;10075;50.924;4.396;2024-01-30T14:04:17;11.70;99.90
19829;DHT22;10075;50.924;4.396;2024-01-30T14:06:45;11.60;99.90
19829;DHT22;10075;50.924;4.396;2024-01-30T14:09:12;12.00;99.90
19829;DHT22;10075;50.924;4.396;2024-01-30T14:11:41;12.00;99.90
19829;DHT22;10075;50.924;4.396;2024-01-30T14:14:09;12.00;99.90
19829;DHT22;10075;50.924;4.396;2024-01-30T14:16:36;11.80;99.90
19829;DHT22;10075;50.924;4.396;2024-01-30T14:19:03;11.90;99.90
19829;DHT22;10075;50.924;4.396;2024-01-30T14:21:31;11.90;99.90
19829;DHT22;10075;50.924;4.396;2024-01-30T14:23:59;11.70;99.90
19829;DHT22;10075;50.924;4.396;2024-01-30T14:26:27;11.60;99.90
19829;DHT22;10075;50.924;4.396;2024-01-30T14:28:54;11.50;99.90
19829;DHT22;10075;50.924;4.396;2024-01-30T14:31:21;11.60;99.90
19829;DHT22;10075;50.924;4.396;2024-01-30T14:33:49;11.50;99.90
19829;DHT22;10075;50.924;4.396;2024-01-30T14:36:17;11.40;99.90
19829;DHT22;10075;50.924;4.396;2024-01-30T14:38:46;11.40;99.90
19829;DHT22;10075;50.924;4.396;2024-01-30T14:41:14;11.40;99.90
19829;DHT22;10075;50.924;4.396;2024-01-30T14:43:41;11.30;99.90
19829;DHT22;10075;50.924;4.396;2024-01-30T14:46:08;11.30;99.90
19829;DHT22;10075;50.924;4.396;2024-01-30T14:48:35;11.50;99.90
19829;DHT22;10075;50.924;4.396;2024-01-30T14:51:02;11.70;99.90
19829;DHT22;10075;50.924;4.396;2024-01-30T14:53:29;11.50;99.90
19829;DHT22;10075;50.924;4.396;2024-01-30T14:55:56;11.70;99.90
19829;DHT22;10075;50.924;4.396;2024-01-30T14:58:24;11.50;99.90
19829;DHT22;10075;50.924;4.396;2024-01-30T15:00:51;11.30;99.90
19829;DHT22;10075;50.924;4.396;2024-01-30T15:03:18;11.00;99.90
19829;DHT22;10075;50.924;4.396;2024-01-30T15:05:45;10.80;99.90
19829;DHT22;10075;50.924;4.396;2024-01-30T15:08:12;10.90;99.90
19829;DHT22;10075;50.924;4.396;2024-01-30T15:10:39;11.20;99.90
19829;DHT22;10075;50.924;4.396;2024-01-30T15:13:06;11.30;99.90
19829;DHT22;10075;50.924;4.396;2024-01-30T15:15:34;11.30;99.90
19829;DHT22;10075;50.924;4.396;2024-01-30T15:18:01;11.20;99.90
19829;DHT22;10075;50.924;4.396;2024-01-30T15:20:28;10.90;99.90
19829;DHT22;10075;50.924;4.396;2024-01-30T15:22:56;11.00;99.90
19829;DHT22;10075;50.924;4.396;2024-01-30T15:25:23;11.20;99.90
19829;DHT22;10075;50.924;4.396;2024-01-30T15:27:50;11.30;99.90
19829;DHT22;10075;50.924;4.396;2024-01-30T15:30:17;11.50;99.90
19829;DHT22;10075;50.924;4.396;2024-01-30T15:32:46;11.30;99.90